Аэропорт: Владикавказ (Беслан). Владикавказ

ICAO: URMO

METAR:
2020-10-24 05:30:00
URMO 240530Z 00000MPS 9999 NSC 12/02 Q1021 R09/010070 NOSIG RMK QFE722/0962
METAR:
2020-10-24 05:00:00
TAF URMO 240500Z 2406/2415 10003G08MPS 9999 SCT030